Time;durP1;ratioP1;P1;durP2;ratioP2;P2;SDS_P1;SDS_P2;PMS_P1;PMS_P2;Temp;Humidity;BMP_temperature;BMP_pressure;BME280_temperature;BME280_humidity;BME280_pressure;Samples;Min_cycle;Max_cycle;Signal;HPM_P1;HPM_P2
2023/01/06 00:01:34;;;;;;;4.07;1.70;;;11.40;99.90;;;;;;5065583;28;19946;-52
2023/01/06 00:04:01;;;;;;;6.60;1.48;;;11.40;99.90;;;;;;5068237;28;20532;-44
2023/01/06 00:06:29;;;;;;;4.88;1.42;;;11.50;99.90;;;;;;5067284;28;20464;-50
2023/01/06 00:08:57;;;;;;;8.63;1.60;;;11.40;99.90;;;;;;5069371;28;20031;-41
2023/01/06 00:11:23;;;;;;;7.93;1.48;;;11.40;99.90;;;;;;5070325;28;20029;-39
2023/01/06 00:13:49;;;;;;;5.57;1.38;;;11.40;99.90;;;;;;5071228;28;20056;-39
2023/01/06 00:16:18;;;;;;;3.67;1.17;;;11.40;99.90;;;;;;5071451;28;20538;-39
2023/01/06 00:18:44;;;;;;;2.50;1.55;;;11.40;99.90;;;;;;5072377;28;20527;-37
2023/01/06 00:21:11;;;;;;;5.32;2.08;;;11.40;99.90;;;;;;5072095;28;20104;-36
2023/01/06 00:23:38;;;;;;;2.75;1.60;;;11.40;99.90;;;;;;5060604;28;20033;-38
2023/01/06 00:26:05;;;;;;;3.70;1.55;;;11.30;99.90;;;;;;5052280;28;20488;-39
2023/01/06 00:28:31;;;;;;;3.50;1.40;;;11.30;99.90;;;;;;5058298;28;20048;-38
2023/01/06 00:30:56;;;;;;;6.00;1.50;;;11.30;99.90;;;;;;5072112;28;20037;-38
2023/01/06 00:33:23;;;;;;;5.68;1.65;;;11.30;99.90;;;;;;5072209;28;20017;-39
2023/01/06 00:35:49;;;;;;;5.70;2.00;;;11.30;99.90;;;;;;5072254;28;20361;-36
2023/01/06 00:38:14;;;;;;;5.40;1.70;;;11.40;99.90;;;;;;5072301;28;20032;-39
2023/01/06 00:40:40;;;;;;;5.30;1.92;;;11.30;99.90;;;;;;5071550;28;20384;-37
2023/01/06 00:43:05;;;;;;;3.80;2.00;;;11.30;99.90;;;;;;5072447;28;20392;-40
2023/01/06 00:45:31;;;;;;;6.03;1.90;;;11.40;99.90;;;;;;5072329;28;20021;-39
2023/01/06 00:47:57;;;;;;;4.03;2.15;;;11.30;99.90;;;;;;5072137;28;20021;-41
2023/01/06 00:50:23;;;;;;;4.63;1.73;;;11.30;99.90;;;;;;5072205;28;20031;-39
2023/01/06 00:52:52;;;;;;;2.00;1.85;;;11.30;99.90;;;;;;5074169;28;20031;-38
2023/01/06 00:55:18;;;;;;;3.88;1.88;;;11.30;99.90;;;;;;5075736;28;20039;-36
2023/01/06 00:57:43;;;;;;;3.40;1.75;;;11.30;99.90;;;;;;5074907;28;20024;-40
2023/01/06 01:00:10;;;;;;;10.93;2.13;;;11.30;99.90;;;;;;5075261;28;20078;-41
2023/01/06 01:02:35;;;;;;;4.35;1.83;;;11.30;99.90;;;;;;5075392;28;20062;-38
2023/01/06 01:05:01;;;;;;;3.13;1.92;;;11.30;99.90;;;;;;5075586;28;20542;-37
2023/01/06 01:07:27;;;;;;;4.80;1.73;;;11.40;99.90;;;;;;5075815;28;20035;-38
2023/01/06 01:09:52;;;;;;;6.05;2.08;;;11.40;99.90;;;;;;5075446;28;20021;-40
2023/01/06 01:12:18;;;;;;;9.38;2.00;;;11.40;99.90;;;;;;5075420;28;20452;-37
2023/01/06 01:14:46;;;;;;;5.53;2.17;;;11.40;99.90;;;;;;5063330;28;20389;-33
2023/01/06 01:17:13;;;;;;;3.67;1.80;;;11.40;99.90;;;;;;5072628;28;20073;-37
2023/01/06 01:19:39;;;;;;;3.78;1.80;;;11.40;99.90;;;;;;5075159;28;20021;-39
2023/01/06 01:22:06;;;;;;;3.80;1.92;;;11.40;99.90;;;;;;5075579;28;20016;-38
2023/01/06 01:24:32;;;;;;;5.15;1.95;;;11.40;99.90;;;;;;5075307;28;20024;-36
2023/01/06 01:26:58;;;;;;;9.52;2.40;;;11.40;99.90;;;;;;5075293;28;20103;-40
2023/01/06 01:29:25;;;;;;;2.75;2.25;;;11.40;99.90;;;;;;5075189;28;20028;-40
2023/01/06 01:31:51;;;;;;;4.50;2.17;;;11.40;99.90;;;;;;5074486;28;20392;-39
2023/01/06 01:34:17;;;;;;;2.33;1.90;;;11.40;99.90;;;;;;5075411;28;20013;-40
2023/01/06 01:36:45;;;;;;;4.03;1.83;;;11.40;99.90;;;;;;5075115;28;20582;-42
2023/01/06 01:39:11;;;;;;;;;;;11.40;99.90;;;;;;5075737;28;20067;-39
2023/01/06 01:41:37;;;;;;;5.95;2.22;;;11.40;99.90;;;;;;5075168;28;20348;-36
2023/01/06 01:44:41;;;;;;;4.60;1.83;;;11.40;99.90;;;;;;5074930;28;20021;-37
2023/01/06 01:47:07;;;;;;;8.95;1.77;;;11.40;99.90;;;;;;5074661;28;20113;-38
2023/01/06 01:49:38;;;;;;;6.72;1.85;;;11.30;99.90;;;;;;5073884;28;20021;-38
2023/01/06 01:52:04;;;;;;;5.35;2.00;;;11.40;99.90;;;;;;5074664;28;20393;-37
2023/01/06 01:54:32;;;;;;;11.60;1.73;;;11.30;99.90;;;;;;5074553;28;20469;-35
2023/01/06 01:57:12;;;;;;;5.70;2.00;;;11.30;99.90;;;;;;5072649;28;20115;-36
2023/01/06 01:59:39;;;;;;;4.28;1.77;;;11.30;99.90;;;;;;5072349;28;20553;-41
2023/01/06 02:02:05;;;;;;;4.90;1.50;;;11.30;99.90;;;;;;5073084;28;20028;-40
2023/01/06 02:04:35;;;;;;;5.93;1.80;;;11.40;99.90;;;;;;5072666;28;20040;-38
2023/01/06 02:07:02;;;;;;;6.18;1.83;;;11.40;99.90;;;;;;5071634;28;20056;-37
2023/01/06 02:09:37;;;;;;;2.65;1.60;;;11.40;99.90;;;;;;5072352;28;20404;-38
2023/01/06 02:12:03;;;;;;;2.58;1.67;;;11.40;99.90;;;;;;5069651;28;20033;-37
2023/01/06 02:14:29;;;;;;;8.35;1.90;;;11.30;99.90;;;;;;5073595;28;20491;-39
2023/01/06 02:16:55;;;;;;;2.88;1.20;;;11.30;99.90;;;;;;5072920;28;20464;-35
2023/01/06 02:19:38;;;;;;;2.30;1.63;;;11.40;99.90;;;;;;5073833;28;20086;-37
2023/01/06 02:22:34;;;;;;;6.78;2.20;;;11.40;99.90;;;;;;5070557;28;20090;-39
2023/01/06 02:25:27;;;;;;;1.30;1.08;;;11.30;99.90;;;;;;5074898;28;20496;-41
2023/01/06 02:28:43;;;;;;;4.70;1.48;;;11.40;99.90;;;;;;5069119;28;20444;-40
2023/01/06 02:31:26;;;;;;;6.55;1.30;;;11.40;99.90;;;;;;5068556;28;20040;-38
2023/01/06 02:34:17;;;;;;;4.72;1.25;;;11.30;99.90;;;;;;5073942;28;20439;-38
2023/01/06 02:37:01;;;;;;;5.93;1.42;;;11.30;99.90;;;;;;5073340;28;20550;-37
2023/01/06 02:39:29;;;;;;;1.80;1.70;;;11.30;99.90;;;;;;5073911;28;20032;-40
2023/01/06 02:42:10;;;;;;;3.55;1.45;;;11.40;99.90;;;;;;5071008;28;20511;-39
2023/01/06 02:45:14;;;;;;;5.78;1.27;;;11.30;99.90;;;;;;5073808;28;20032;-39
2023/01/06 02:48:00;;;;;;;5.95;1.80;;;11.40;99.90;;;;;;5024461;28;20051;-43
2023/01/06 02:51:00;;;;;;;5.13;1.45;;;11.30;99.90;;;;;;5070315;28;20476;-36
2023/01/06 02:53:46;;;;;;;3.10;1.80;;;11.30;99.90;;;;;;5053575;28;20037;-38
2023/01/06 02:56:12;;;;;;;6.15;1.63;;;11.30;99.90;;;;;;5059744;28;20567;-39
2023/01/06 02:58:50;;;;;;;4.15;1.33;;;11.30;99.90;;;;;;5072043;28;20139;-39
2023/01/06 03:01:32;;;;;;;3.22;0.80;;;11.30;99.90;;;;;;5073306;28;20035;-40
2023/01/06 03:04:06;;;;;;;2.65;0.80;;;11.30;99.90;;;;;;5053353;28;20058;-38
2023/01/06 03:06:34;;;;;;;5.10;0.88;;;11.30;99.90;;;;;;5060441;28;20530;-35
2023/01/06 03:09:00;;;;;;;0.98;0.93;;;11.30;99.90;;;;;;5073527;28;20388;-36
2023/01/06 03:11:30;;;;;;;3.58;1.08;;;11.30;99.90;;;;;;5073207;28;20036;-37
2023/01/06 03:14:09;;;;;;;2.30;1.05;;;11.30;99.90;;;;;;5073124;28;20552;-44
2023/01/06 03:16:34;;;;;;;1.00;0.93;;;11.30;99.90;;;;;;5071243;28;20492;-38
2023/01/06 03:19:02;;;;;;;3.55;1.83;;;11.40;99.90;;;;;;5073035;28;20056;-40
2023/01/06 03:21:32;;;;;;;1.85;1.13;;;11.30;99.90;;;;;;5071005;28;20544;-42
2023/01/06 03:23:58;;;;;;;7.78;0.98;;;11.30;99.90;;;;;;5072954;28;20476;-42
2023/01/06 03:26:25;;;;;;;2.42;0.70;;;11.30;99.90;;;;;;5072927;28;20047;-42
2023/01/06 03:28:50;;;;;;;1.50;0.68;;;11.40;99.90;;;;;;5071764;28;20295;-42
2023/01/06 03:31:34;;;;;;;1.48;0.82;;;11.40;99.90;;;;;;5072098;28;20029;-40
2023/01/06 03:34:21;;;;;;;5.20;2.25;;;11.40;99.90;;;;;;5071604;28;20491;-37
2023/01/06 03:36:58;;;;;;;1.80;0.77;;;11.40;99.90;;;;;;5071853;28;20024;-42
2023/01/06 03:39:42;;;;;;;3.67;1.45;;;11.40;99.90;;;;;;5072966;28;20028;-38
2023/01/06 03:45:43;;;;;;;2.83;0.85;;;11.40;99.90;;;;;;5061703;28;20690;-40
2023/01/06 03:48:22;;;;;;;2.85;1.00;;;11.30;99.90;;;;;;5071165;28;20533;-41
2023/01/06 03:50:54;;;;;;;1.52;0.93;;;11.40;99.90;;;;;;5071024;28;20434;-38
2023/01/06 03:53:34;;;;;;;2.15;1.08;;;11.30;99.90;;;;;;5070201;28;20021;-40
2023/01/06 03:56:28;;;;;;;6.03;1.00;;;11.30;99.90;;;;;;5071428;28;20476;-39
2023/01/06 03:58:57;;;;;;;0.77;0.70;;;11.40;99.90;;;;;;5058416;28;20481;-40
2023/01/06 04:01:25;;;;;;;5.30;1.13;;;11.40;99.90;;;;;;5071218;28;20028;-36
2023/01/06 04:03:55;;;;;;;2.05;0.90;;;11.40;99.90;;;;;;5070898;28;20551;-38
2023/01/06 04:06:21;;;;;;;6.22;0.98;;;11.40;99.90;;;;;;5071619;28;20012;-38
2023/01/06 04:08:47;;;;;;;2.15;0.98;;;11.40;99.90;;;;;;5071488;28;20534;-40
2023/01/06 04:12:37;;;;;;;0.95;0.75;;;11.40;99.90;;;;;;5072825;28;20020;-39
2023/01/06 04:13:59;;;;;;;3.83;0.98;;;11.40;99.90;;;;;;5052497;28;20033;-44
2023/01/06 04:16:25;;;;;;;2.38;0.85;;;11.40;99.90;;;;;;5052458;28;20044;-44
2023/01/06 04:18:51;;;;;;;2.20;0.55;;;11.40;99.90;;;;;;5071140;28;20032;-42
2023/01/06 04:21:17;;;;;;;2.60;0.73;;;11.40;99.90;;;;;;5072441;28;20028;-42
2023/01/06 04:23:43;;;;;;;2.20;1.00;;;11.40;99.90;;;;;;5071481;28;20488;-48
2023/01/06 04:26:08;;;;;;;1.85;0.70;;;11.40;99.90;;;;;;5072110;28;20045;-46
2023/01/06 04:28:34;;;;;;;1.73;1.00;;;11.40;99.90;;;;;;5075214;28;20460;-43
2023/01/06 04:31:00;;;;;;;7.10;1.25;;;11.40;99.90;;;;;;5076341;28;20024;-41
2023/01/06 04:33:26;;;;;;;5.82;1.10;;;11.40;99.90;;;;;;5076249;28;20036;-45
2023/01/06 04:35:52;;;;;;;3.15;0.70;;;11.40;99.90;;;;;;5075259;28;20033;-41
2023/01/06 04:38:18;;;;;;;4.35;1.00;;;11.40;99.90;;;;;;5076150;28;20077;-43
2023/01/06 04:40:43;;;;;;;6.53;1.13;;;11.40;99.90;;;;;;5076176;28;20068;-42
2023/01/06 04:43:13;;;;;;;1.33;1.10;;;11.40;99.90;;;;;;5075910;28;20087;-45
2023/01/06 04:45:39;;;;;;;1.48;0.70;;;11.40;99.90;;;;;;5075070;28;20024;-44
2023/01/06 04:48:05;;;;;;;2.78;1.35;;;11.40;99.90;;;;;;5076232;28;20476;-45
2023/01/06 04:50:31;;;;;;;2.95;0.90;;;11.40;99.90;;;;;;5076033;28;20024;-45
2023/01/06 04:52:57;;;;;;;1.17;0.70;;;11.40;99.90;;;;;;5075268;28;20059;-42
2023/01/06 04:55:23;;;;;;;2.20;0.85;;;11.40;99.90;;;;;;5075854;28;20396;-42
2023/01/06 04:57:49;;;;;;;2.45;1.38;;;11.40;99.90;;;;;;5075423;28;20476;-44
2023/01/06 05:00:16;;;;;;;1.40;0.80;;;11.40;99.90;;;;;;5075530;28;20073;-45
2023/01/06 05:02:41;;;;;;;2.97;1.27;;;11.40;99.90;;;;;;5075194;28;20031;-43
2023/01/06 05:05:07;;;;;;;2.05;1.20;;;11.50;99.90;;;;;;5075068;28;20435;-43
2023/01/06 05:07:33;;;;;;;1.88;0.98;;;11.50;99.90;;;;;;5073546;28;20024;-41
2023/01/06 05:09:59;;;;;;;2.40;0.82;;;11.50;99.90;;;;;;5071607;28;20070;-40
2023/01/06 05:12:24;;;;;;;3.42;1.27;;;11.50;99.90;;;;;;5074804;28;20499;-33
2023/01/06 05:14:50;;;;;;;1.40;0.80;;;11.50;99.90;;;;;;5074270;28;20119;-37
2023/01/06 05:17:16;;;;;;;1.50;1.00;;;11.60;99.90;;;;;;5072213;28;20074;-43
2023/01/06 05:19:43;;;;;;;1.30;0.88;;;11.50;99.90;;;;;;5074384;28;20024;-41
2023/01/06 05:22:11;;;;;;;2.08;0.93;;;11.50;99.90;;;;;;5074538;28;20103;-36
2023/01/06 05:24:37;;;;;;;3.28;0.85;;;11.50;99.90;;;;;;5074327;28;20052;-39
2023/01/06 05:27:03;;;;;;;4.30;1.05;;;11.50;99.90;;;;;;5071501;28;20083;-41
2023/01/06 05:29:29;;;;;;;2.17;0.93;;;11.50;99.90;;;;;;5073918;28;20024;-34
2023/01/06 05:31:54;;;;;;;4.13;0.80;;;11.40;99.90;;;;;;5074174;28;20105;-37
2023/01/06 05:34:20;;;;;;;0.82;0.77;;;11.30;99.90;;;;;;5072662;28;20020;-41
2023/01/06 05:36:46;;;;;;;0.70;0.70;;;11.30;99.90;;;;;;5073521;28;20085;-39
2023/01/06 05:39:11;;;;;;;4.95;0.80;;;11.30;99.90;;;;;;5072274;28;20021;-33
2023/01/06 05:41:37;;;;;;;0.90;0.90;;;11.30;99.90;;;;;;5073425;28;20021;-37
2023/01/06 05:44:03;;;;;;;1.67;0.90;;;11.30;99.90;;;;;;5072686;28;20020;-33
2023/01/06 05:46:28;;;;;;;3.95;0.90;;;11.30;99.90;;;;;;5072951;28;20027;-36
2023/01/06 05:48:54;;;;;;;3.28;1.13;;;11.30;99.90;;;;;;5071110;28;20035;-38
2023/01/06 05:51:20;;;;;;;4.72;0.95;;;11.20;99.90;;;;;;5071835;28;20468;-38
2023/01/06 05:53:47;;;;;;;4.50;1.27;;;11.20;99.90;;;;;;5070872;28;20032;-35
2023/01/06 05:56:15;;;;;;;6.30;1.20;;;11.10;99.90;;;;;;5075017;28;20537;-40
2023/01/06 05:58:43;;;;;;;0.80;0.80;;;11.10;99.90;;;;;;5073186;28;20021;-37
2023/01/06 06:01:21;;;;;;;2.13;1.10;;;11.00;99.90;;;;;;5073866;28;20502;-39
2023/01/06 06:03:47;;;;;;;4.82;1.08;;;11.00;99.90;;;;;;5073273;28;20027;-35
2023/01/06 06:06:14;;;;;;;0.80;0.80;;;11.00;99.90;;;;;;5072676;28;20538;-35
2023/01/06 06:08:39;;;;;;;2.03;1.27;;;11.00;99.90;;;;;;5071944;28;20020;-36
2023/01/06 06:11:11;;;;;;;2.30;1.10;;;11.00;99.90;;;;;;5074324;28;20082;-36
2023/01/06 06:13:38;;;;;;;1.30;1.20;;;11.00;99.90;;;;;;5074563;28;20476;-37
2023/01/06 06:16:09;;;;;;;1.77;1.10;;;10.90;99.90;;;;;;5072385;28;20034;-38
2023/01/06 06:18:41;;;;;;;3.45;1.20;;;10.90;99.90;;;;;;5073244;28;20060;-37
2023/01/06 06:21:17;;;;;;;1.63;1.15;;;10.90;99.90;;;;;;5072865;28;20036;-39
2023/01/06 06:23:42;;;;;;;1.20;1.13;;;11.00;99.90;;;;;;5072783;28;20115;-37
2023/01/06 06:26:09;;;;;;;1.77;1.10;;;11.10;99.90;;;;;;5073782;28;20121;-37
2023/01/06 06:28:36;;;;;;;2.25;1.30;;;11.00;99.90;;;;;;5073668;28;20070;-38
2023/01/06 06:31:06;;;;;;;1.63;1.23;;;11.00;99.90;;;;;;5073760;28;20040;-37
2023/01/06 06:33:32;;;;;;;1.08;1.05;;;11.10;99.90;;;;;;5073845;28;20481;-39
2023/01/06 06:35:58;;;;;;;2.35;0.95;;;11.10;99.90;;;;;;5073136;28;20024;-38
2023/01/06 06:38:24;;;;;;;2.67;1.20;;;11.10;99.90;;;;;;5073141;28;20035;-36
2023/01/06 06:40:50;;;;;;;1.58;1.48;;;11.00;99.90;;;;;;5074057;28;20395;-38
2023/01/06 06:43:15;;;;;;;1.55;1.42;;;11.00;99.90;;;;;;5070992;28;20089;-38
2023/01/06 06:45:44;;;;;;;6.30;1.50;;;11.00;99.90;;;;;;5071546;28;20054;-37
2023/01/06 06:48:09;;;;;;;2.42;1.52;;;11.00;99.90;;;;;;5073930;28;20399;-37
2023/01/06 06:50:35;;;;;;;2.95;1.85;;;10.90;99.90;;;;;;5072350;28;20017;-34
2023/01/06 06:53:00;;;;;;;3.20;1.45;;;10.90;99.90;;;;;;5073562;28;20032;-37
2023/01/06 06:55:26;;;;;;;1.33;1.23;;;10.90;99.90;;;;;;5073561;28;20032;-40
2023/01/06 06:57:52;;;;;;;6.57;1.90;;;10.90;99.90;;;;;;5073502;28;20032;-40
2023/01/06 07:00:17;;;;;;;2.25;1.50;;;10.90;99.90;;;;;;5072505;28;20040;-38
2023/01/06 07:02:48;;;;;;;3.22;1.83;;;10.90;99.90;;;;;;5073267;28;20455;-38
2023/01/06 07:05:14;;;;;;;2.55;2.00;;;10.90;99.90;;;;;;5073647;28;20497;-36
2023/01/06 07:07:39;;;;;;;2.25;1.70;;;10.90;99.90;;;;;;5072483;28;20515;-35
2023/01/06 07:10:05;;;;;;;3.38;1.90;;;10.90;99.90;;;;;;5073333;28;20060;-35
2023/01/06 07:12:31;;;;;;;1.30;1.20;;;10.90;99.90;;;;;;5072212;28;20055;-37
2023/01/06 07:14:57;;;;;;;1.38;1.27;;;10.90;99.90;;;;;;5072786;28;20441;-37
2023/01/06 07:17:28;;;;;;;1.98;1.42;;;10.80;99.90;;;;;;5073113;28;20035;-37
2023/01/06 07:19:54;;;;;;;1.30;1.20;;;10.90;99.90;;;;;;5070059;28;20489;-38
2023/01/06 07:22:20;;;;;;;4.40;1.42;;;10.80;99.90;;;;;;5070599;28;20039;-34
2023/01/06 07:24:45;;;;;;;2.28;2.03;;;10.80;99.90;;;;;;5071793;28;20029;-37
2023/01/06 07:27:11;;;;;;;2.28;1.83;;;10.80;99.90;;;;;;5071785;28;20048;-33
2023/01/06 07:29:37;;;;;;;1.52;1.42;;;10.80;99.90;;;;;;5069477;28;20092;-36
2023/01/06 07:32:03;;;;;;;2.45;1.52;;;10.80;99.90;;;;;;5071299;28;20094;-36
2023/01/06 07:34:28;;;;;;;1.40;1.30;;;10.80;99.90;;;;;;5068360;28;20032;-39
2023/01/06 07:36:54;;;;;;;1.42;1.33;;;10.80;99.90;;;;;;5071945;28;20469;-39
2023/01/06 07:39:20;;;;;;;2.08;1.70;;;10.80;99.90;;;;;;5073102;28;20475;-36
2023/01/06 07:41:45;;;;;;;2.22;2.03;;;10.90;99.90;;;;;;5060674;28;20536;-37
2023/01/06 07:44:11;;;;;;;3.83;2.10;;;10.90;99.90;;;;;;5066427;28;20017;-36
2023/01/06 07:46:37;;;;;;;5.05;2.10;;;10.80;99.90;;;;;;5072787;28;20518;-37
2023/01/06 07:49:02;;;;;;;5.70;2.47;;;10.90;99.90;;;;;;5069976;28;20074;-40
2023/01/06 07:51:28;;;;;;;2.97;2.10;;;10.80;99.90;;;;;;5072498;28;20484;-42
2023/01/06 07:53:56;;;;;;;4.20;2.33;;;10.70;99.90;;;;;;5072712;28;20039;-39
2023/01/06 07:56:22;;;;;;;2.70;2.30;;;10.70;99.90;;;;;;5071794;28;20024;-36
2023/01/06 07:58:48;;;;;;;2.92;2.05;;;10.70;99.90;;;;;;5070802;28;20495;-36
2023/01/06 08:01:14;;;;;;;6.43;2.50;;;10.70;99.90;;;;;;5072289;28;20025;-36
2023/01/06 08:03:40;;;;;;;2.75;2.10;;;10.70;99.90;;;;;;5076320;28;20028;-36
2023/01/06 08:06:09;;;;;;;3.72;2.33;;;10.60;99.90;;;;;;5074697;28;20132;-37
2023/01/06 08:08:39;;;;;;;9.75;3.72;;;10.70;99.90;;;;;;5076854;28;20469;-38
2023/01/06 08:11:06;;;;;;;8.77;2.85;;;10.70;99.90;;;;;;5076711;28;20396;-34
2023/01/06 08:13:32;;;;;;;4.13;1.40;;;10.70;99.90;;;;;;5076628;28;20095;-34
2023/01/06 08:16:02;;;;;;;7.43;1.80;;;10.70;99.90;;;;;;5075869;28;20291;-33
2023/01/06 08:18:28;;;;;;;5.25;2.15;;;10.60;99.90;;;;;;5075866;28;20033;-35
2023/01/06 08:21:01;;;;;;;10.57;1.75;;;10.60;99.90;;;;;;5074337;28;20458;-35
2023/01/06 08:23:28;;;;;;;5.40;1.95;;;10.50;99.90;;;;;;5075769;28;20028;-38
2023/01/06 08:26:01;;;;;;;8.23;1.90;;;10.50;99.90;;;;;;5076292;28;20514;-37
2023/01/06 08:28:27;;;;;;;9.07;2.33;;;10.40;99.90;;;;;;5076422;28;20028;-35
2023/01/06 08:30:52;;;;;;;8.48;1.83;;;10.40;99.90;;;;;;5074193;28;20491;-39
2023/01/06 08:33:18;;;;;;;11.38;1.83;;;10.40;99.90;;;;;;5076274;28;20067;-35
2023/01/06 08:35:46;;;;;;;11.68;1.90;;;10.40;99.90;;;;;;5072813;28;20070;-38
2023/01/06 08:38:12;;;;;;;14.27;2.00;;;10.40;99.90;;;;;;5069148;28;20069;-34
2023/01/06 08:40:37;;;;;;;9.30;2.08;;;10.40;99.90;;;;;;5072508;28;20108;-34
2023/01/06 08:43:03;;;;;;;12.75;2.85;;;10.40;99.90;;;;;;5072269;28;20025;-38
2023/01/06 08:45:29;;;;;;;6.22;1.25;;;10.40;99.90;;;;;;5067823;28;20442;-43
2023/01/06 08:47:54;;;;;;;7.13;2.13;;;10.40;99.90;;;;;;5074266;28;20423;-35
2023/01/06 08:50:20;;;;;;;6.70;1.40;;;10.40;99.90;;;;;;5075780;28;20107;-36
2023/01/06 08:52:46;;;;;;;6.32;1.20;;;10.40;99.90;;;;;;5074873;28;20086;-37
2023/01/06 08:55:11;;;;;;;9.40;1.40;;;10.40;99.90;;;;;;5074993;28;20447;-40
2023/01/06 08:57:37;;;;;;;9.63;1.85;;;10.40;99.90;;;;;;5072242;28;20099;-41
2023/01/06 09:00:06;;;;;;;7.50;2.17;;;10.50;99.90;;;;;;5072460;28;20028;-37
2023/01/06 09:02:32;;;;;;;5.22;1.52;;;10.50;99.90;;;;;;5074400;28;20472;-40
2023/01/06 09:04:58;;;;;;;8.93;1.50;;;10.60;99.90;;;;;;5071359;28;20031;-42
2023/01/06 09:07:23;;;;;;;7.55;1.23;;;10.50;99.90;;;;;;5072847;28;20024;-38
2023/01/06 09:09:49;;;;;;;11.65;1.48;;;10.60;99.90;;;;;;5071869;28;20029;-38
2023/01/06 09:12:15;;;;;;;12.15;2.22;;;10.60;99.90;;;;;;5073556;28;20023;-40
2023/01/06 09:14:40;;;;;;;4.82;1.10;;;10.60;99.90;;;;;;5069529;28;20089;-36
2023/01/06 09:17:06;;;;;;;12.23;1.08;;;10.60;99.90;;;;;;5069823;28;20532;-39
2023/01/06 09:19:31;;;;;;;9.68;1.40;;;10.60;99.90;;;;;;5072149;28;20067;-35
2023/01/06 09:21:57;;;;;;;7.78;1.33;;;10.60;99.90;;;;;;5072832;28;20028;-40
2023/01/06 09:24:23;;;;;;;6.10;1.30;;;10.60;99.90;;;;;;5068094;28;20019;-42
2023/01/06 09:26:48;;;;;;;7.20;1.63;;;10.60;99.90;;;;;;5068435;28;20032;-36
2023/01/06 09:29:14;;;;;;;11.70;0.95;;;10.70;99.90;;;;;;5074074;28;20055;-39
2023/01/06 09:31:39;;;;;;;9.75;1.60;;;10.70;99.90;;;;;;5070454;28;20460;-33
2023/01/06 09:34:05;;;;;;;12.23;1.77;;;10.70;99.90;;;;;;5074482;28;20029;-40
2023/01/06 09:36:33;;;;;;;8.63;1.10;;;10.70;99.90;;;;;;5072881;28;20028;-39
2023/01/06 09:38:59;;;;;;;13.18;1.42;;;10.70;99.90;;;;;;5075306;28;20028;-38
2023/01/06 09:41:35;;;;;;;6.63;1.45;;;10.80;99.90;;;;;;5069766;28;20043;-42
2023/01/06 09:44:27;;;;;;;11.10;1.58;;;10.80;99.90;;;;;;5072604;28;20476;-39
2023/01/06 09:53:18;;;;;;;14.20;1.98;;;10.80;99.90;;;;;;5065907;28;20043;-40
2023/01/06 09:55:56;;;;;;;12.25;1.25;;;10.90;99.90;;;;;;5078338;28;20028;-38
2023/01/06 09:58:45;;;;;;;10.82;1.15;;;10.90;99.90;;;;;;5095208;28;20027;-38
2023/01/06 10:01:15;;;;;;;9.13;1.38;;;10.80;99.90;;;;;;5086030;28;20024;-36
2023/01/06 10:03:46;;;;;;;7.45;1.50;;;10.80;99.90;;;;;;5072275;28;20506;-35
2023/01/06 10:06:44;;;;;;;4.63;1.02;;;10.80;99.90;;;;;;5071395;28;20487;-40
2023/01/06 10:09:41;;;;;;;10.52;1.15;;;10.80;99.90;;;;;;5066312;28;20025;-41
2023/01/06 10:12:22;;;;;;;10.45;1.50;;;10.80;99.90;;;;;;5072677;28;20476;-37
2023/01/06 10:14:56;;;;;;;15.98;1.52;;;10.80;99.90;;;;;;5070559;28;20107;-36
2023/01/06 10:17:55;;;;;;;6.68;1.00;;;10.80;99.90;;;;;;5068103;28;20047;-32
2023/01/06 10:20:27;;;;;;;9.48;1.33;;;10.90;99.90;;;;;;5073190;28;20325;-38
2023/01/06 10:23:07;;;;;;;5.45;0.70;;;10.90;99.90;;;;;;5076171;28;20550;-42
2023/01/06 10:25:53;;;;;;;5.22;1.65;;;10.90;99.90;;;;;;5072443;28;20025;-40
2023/01/06 10:28:29;;;;;;;10.35;0.65;;;10.90;99.90;;;;;;5069217;28;20032;-39
2023/01/06 10:30:59;;;;;;;4.47;1.05;;;10.80;99.90;;;;;;5072201;28;20090;-41
2023/01/06 10:33:31;;;;;;;3.78;0.68;;;10.90;99.90;;;;;;5072702;28;20020;-38
2023/01/06 10:35:58;;;;;;;7.65;1.05;;;11.00;99.90;;;;;;5071952;28;20488;-38
2023/01/06 10:38:42;;;;;;;9.45;0.80;;;11.00;99.90;;;;;;5071700;28;20052;-37
2023/01/06 10:41:20;;;;;;;12.75;1.48;;;11.00;99.90;;;;;;5071680;28;20032;-40
2023/01/06 10:43:46;;;;;;;4.82;0.90;;;11.10;99.90;;;;;;5071852;28;20028;-42
2023/01/06 10:46:13;;;;;;;2.22;0.70;;;11.10;99.90;;;;;;5071313;28;20510;-38
2023/01/06 10:48:39;;;;;;;4.88;0.70;;;11.20;99.90;;;;;;5054106;28;20038;-35
2023/01/06 10:51:22;;;;;;;4.85;1.40;;;11.20;99.90;;;;;;5068742;28;20028;-40
2023/01/06 10:53:48;;;;;;;5.50;0.93;;;11.20;99.90;;;;;;5065695;28;20024;-40
2023/01/06 10:56:15;;;;;;;4.82;1.08;;;11.20;99.90;;;;;;5073461;28;20075;-39
2023/01/06 10:58:58;;;;;;;1.05;0.32;;;11.30;99.90;;;;;;5072138;28;20028;-40
2023/01/06 11:01:26;;;;;;;4.18;0.90;;;11.30;99.90;;;;;;5071419;28;20024;-40
2023/01/06 11:04:08;;;;;;;;;;;11.20;99.90;;;;;;5073848;28;20524;-38
2023/01/06 11:06:35;;;;;;;7.88;0.95;;;11.30;99.90;;;;;;5073615;28;20314;-38
2023/01/06 11:09:20;;;;;;;8.85;0.95;;;11.30;99.90;;;;;;5070036;28;20418;-38
2023/01/06 11:11:50;;;;;;;6.90;0.90;;;11.30;99.90;;;;;;5072797;28;20025;-39
2023/01/06 11:14:18;;;;;;;3.58;0.35;;;11.30;99.90;;;;;;5071953;28;20473;-42
2023/01/06 11:16:51;;;;;;;;;;;11.30;99.90;;;;;;5071604;28;20492;-38
2023/01/06 11:19:35;;;;;;;5.45;0.68;;;11.20;99.90;;;;;;5058695;28;19908;-37
2023/01/06 11:22:01;;;;;;;1.35;0.45;;;11.20;99.90;;;;;;5070223;28;20093;-38
2023/01/06 11:24:28;;;;;;;7.10;1.42;;;11.40;99.90;;;;;;5068068;28;20017;-35
2023/01/06 11:26:58;;;;;;;5.68;0.60;;;11.40;99.90;;;;;;5065105;28;20500;-43
2023/01/06 11:29:27;;;;;;;1.73;0.50;;;11.50;99.90;;;;;;5072628;28;20021;-41
2023/01/06 11:31:54;;;;;;;5.00;1.15;;;11.70;99.90;;;;;;5071288;28;20457;-35
2023/01/06 11:34:23;;;;;;;5.85;0.68;;;11.80;99.90;;;;;;5070091;28;20537;-36
2023/01/06 11:36:50;;;;;;;4.47;0.65;;;11.90;99.90;;;;;;5072043;28;20032;-39
2023/01/06 11:39:25;;;;;;;6.95;0.50;;;12.00;99.90;;;;;;5071876;28;20028;-35
2023/01/06 11:41:52;;;;;;;6.30;0.85;;;12.00;99.90;;;;;;5072758;28;20078;-36
2023/01/06 11:44:28;;;;;;;9.18;1.00;;;12.00;99.90;;;;;;5070527;28;20369;-39
2023/01/06 11:47:00;;;;;;;1.88;0.45;;;11.90;99.90;;;;;;5070904;28;20028;-36
2023/01/06 11:49:39;;;;;;;2.38;1.00;;;12.00;99.90;;;;;;5072250;28;20078;-41
2023/01/06 11:52:29;;;;;;;3.30;0.90;;;12.00;99.90;;;;;;5070618;28;20032;-41
2023/01/06 11:55:04;;;;;;;6.22;0.80;;;12.00;99.90;;;;;;5069087;28;20464;-45
2023/01/06 11:57:34;;;;;;;8.82;1.15;;;12.00;99.90;;;;;;5063391;28;20025;-49
2023/01/06 12:00:32;;;;;;;10.15;0.90;;;12.10;99.90;;;;;;5069594;28;20504;-41
2023/01/06 12:03:09;;;;;;;;;;;12.10;99.90;;;;;;5070455;28;20032;-48
2023/01/06 12:05:44;;;;;;;8.75;0.80;;;12.10;99.90;;;;;;5067162;28;20315;-43
2023/01/06 12:08:34;;;;;;;8.23;1.33;;;12.10;99.90;;;;;;5071610;28;20082;-34
2023/01/06 12:11:11;;;;;;;9.68;1.02;;;12.10;99.90;;;;;;5071472;28;20419;-40
2023/01/06 12:13:36;;;;;;;12.82;1.42;;;12.10;99.90;;;;;;5072505;28;20035;-40
2023/01/06 12:16:06;;;;;;;5.18;0.50;;;12.10;99.90;;;;;;5072083;28;20029;-45
2023/01/06 12:18:35;;;;;;;9.55;0.88;;;12.10;99.90;;;;;;5070552;28;20085;-46
2023/01/06 12:21:02;;;;;;;2.80;0.52;;;12.10;99.90;;;;;;5070028;28;20072;-43
2023/01/06 12:23:40;;;;;;;3.08;0.82;;;12.10;99.90;;;;;;5072011;28;20052;-45
2023/01/06 12:26:17;;;;;;;5.53;0.98;;;12.10;99.90;;;;;;5070824;28;20118;-43
2023/01/06 12:28:46;;;;;;;5.60;1.15;;;12.20;99.90;;;;;;5072369;28;20073;-40
2023/01/06 12:31:14;;;;;;;7.03;0.82;;;12.30;99.90;;;;;;5068045;28;20565;-42
2023/01/06 12:33:48;;;;;;;5.68;1.40;;;12.30;99.90;;;;;;5068345;28;20077;-42
2023/01/06 12:36:30;;;;;;;2.60;0.80;;;12.40;99.90;;;;;;5066930;28;20480;-42
2023/01/06 12:39:00;;;;;;;3.35;0.80;;;12.40;99.90;;;;;;5072127;28;20388;-46
2023/01/06 12:41:48;;;;;;;4.60;1.23;;;12.30;99.90;;;;;;5070662;28;20472;-45
2023/01/06 12:44:35;;;;;;;10.50;2.20;;;12.30;99.90;;;;;;5069880;28;20392;-43
2023/01/06 12:47:16;;;;;;;1.80;0.57;;;12.30;99.90;;;;;;5069764;28;20032;-45
2023/01/06 12:49:50;;;;;;;3.70;0.82;;;12.40;99.90;;;;;;5074922;28;20029;-44
2023/01/06 12:52:26;;;;;;;2.72;0.52;;;12.40;99.90;;;;;;5073110;28;20487;-37
2023/01/06 12:54:56;;;;;;;6.10;0.95;;;12.40;99.90;;;;;;5075896;28;20063;-37
2023/01/06 12:57:33;;;;;;;7.65;0.77;;;12.40;99.90;;;;;;5075834;28;20028;-39
2023/01/06 13:00:02;;;;;;;1.58;0.52;;;12.50;99.90;;;;;;5071934;28;20025;-33
2023/01/06 13:03:09;;;;;;;7.13;0.98;;;12.50;99.90;;;;;;5075328;28;20533;-37
2023/01/06 13:05:51;;;;;;;5.10;0.50;;;12.60;99.90;;;;;;5014896;28;20052;-38
2023/01/06 13:08:47;;;;;;;5.60;1.08;;;12.70;99.90;;;;;;5013219;28;20486;-38
2023/01/06 13:11:37;;;;;;;8.25;0.60;;;12.70;99.90;;;;;;5055292;28;20044;-38
2023/01/06 13:14:41;;;;;;;3.17;0.63;;;12.80;99.90;;;;;;5075447;28;20037;-36
2023/01/06 13:17:31;;;;;;;1.85;0.68;;;12.80;99.90;;;;;;5073193;28;20392;-39